Time;durP1;ratioP1;P1;durP2;ratioP2;P2;SDS_P1;SDS_P2;PMS_P1;PMS_P2;Temp;Humidity;BMP_temperature;BMP_pressure;BME280_temperature;BME280_humidity;BME280_pressure;Samples;Min_cycle;Max_cycle;Signal;HPM_P1;HPM_P2
2021/09/15 00:00:06;;;;;;;10.10;8.40;;;19.30;99.90;;;;;;5023375;28;20857;-73
2021/09/15 00:02:51;;;;;;;10.00;8.77;;;19.30;99.90;;;;;;5017279;28;20838;-73
2021/09/15 00:05:37;;;;;;;13.87;9.00;;;19.30;99.90;;;;;;5014994;28;20600;-73
2021/09/15 00:08:24;;;;;;;15.33;8.50;;;19.40;99.90;;;;;;5019916;28;20772;-73
2021/09/15 00:11:12;;;;;;;8.17;7.37;;;19.40;99.90;;;;;;5018979;28;20525;-73
2021/09/15 00:13:58;;;;;;;12.07;7.70;;;19.40;99.90;;;;;;5029063;28;20441;-74
2021/09/15 00:16:43;;;;;;;9.47;8.57;;;19.40;99.90;;;;;;5015533;28;20425;-73
2021/09/15 00:19:29;;;;;;;13.43;7.43;;;19.40;99.90;;;;;;5018164;28;20422;-73
2021/09/15 00:22:14;;;;;;;9.77;7.83;;;19.40;99.90;;;;;;5022589;28;20556;-73
2021/09/15 00:25:02;;;;;;;16.13;10.00;;;19.40;99.90;;;;;;5029566;28;21116;-73
2021/09/15 00:27:47;;;;;;;10.00;9.00;;;19.30;99.90;;;;;;5021566;28;20428;-73
2021/09/15 00:30:33;;;;;;;10.23;9.10;;;19.40;99.90;;;;;;5016164;28;20622;-73
2021/09/15 00:33:18;;;;;;;13.23;8.80;;;19.30;99.90;;;;;;5013122;28;20489;-73
2021/09/15 00:36:04;;;;;;;10.37;9.37;;;19.40;99.90;;;;;;5012328;28;20446;-73
2021/09/15 00:38:50;;;;;;;13.33;9.00;;;19.40;99.90;;;;;;5014321;28;20422;-73
2021/09/15 00:41:37;;;;;;;10.73;8.50;;;19.40;99.90;;;;;;5023248;28;20445;-73
2021/09/15 00:44:23;;;;;;;12.00;8.07;;;19.50;99.90;;;;;;5024350;28;20947;-73
2021/09/15 00:47:08;;;;;;;10.17;9.07;;;19.40;99.90;;;;;;5012161;28;20749;-73
2021/09/15 00:49:54;;;;;;;10.03;9.00;;;19.30;99.90;;;;;;5013083;28;20418;-73
2021/09/15 00:52:40;;;;;;;11.47;8.90;;;19.20;99.90;;;;;;5018608;28;20469;-73
2021/09/15 00:55:26;;;;;;;8.97;8.07;;;19.10;99.90;;;;;;5022495;28;20936;-73
2021/09/15 00:58:13;;;;;;;10.30;8.50;;;18.90;99.90;;;;;;5014737;28;20432;-73
2021/09/15 01:00:59;;;;;;;11.43;9.37;;;19.00;99.90;;;;;;5016154;28;20425;-73
2021/09/15 01:03:44;;;;;;;15.67;10.33;;;18.90;99.90;;;;;;5009548;28;20445;-73
2021/09/15 01:06:31;;;;;;;12.03;8.97;;;18.80;99.90;;;;;;5016292;28;20456;-73
2021/09/15 01:09:18;;;;;;;9.53;8.63;;;19.00;99.90;;;;;;5018620;28;20432;-73
2021/09/15 01:12:06;;;;;;;10.00;9.03;;;19.00;99.90;;;;;;5019316;28;20432;-73
2021/09/15 01:14:53;;;;;;;10.70;8.80;;;19.00;99.90;;;;;;5019034;28;20444;-74
2021/09/15 01:17:39;;;;;;;11.17;8.87;;;19.10;99.90;;;;;;5018969;28;20420;-73
2021/09/15 01:20:25;;;;;;;9.57;8.57;;;19.10;99.90;;;;;;5010339;28;20443;-73
2021/09/15 01:23:12;;;;;;;18.13;9.20;;;19.10;99.90;;;;;;5011832;28;20435;-73
2021/09/15 01:25:58;;;;;;;11.53;9.47;;;19.00;99.90;;;;;;5011325;28;20437;-73
2021/09/15 01:28:43;;;;;;;11.30;8.67;;;18.90;99.90;;;;;;5015029;28;20956;-73
2021/09/15 01:31:29;;;;;;;13.27;8.70;;;18.90;99.90;;;;;;5014095;28;20454;-73
2021/09/15 01:34:15;;;;;;;12.27;8.27;;;18.90;99.90;;;;;;5012424;28;20551;-73
2021/09/15 01:37:00;;;;;;;10.80;8.80;;;18.90;99.90;;;;;;5015391;28;20510;-73
2021/09/15 01:39:48;;;;;;;9.47;8.53;;;19.00;99.90;;;;;;5024368;28;20528;-73
2021/09/15 01:42:33;;;;;;;12.07;7.73;;;18.90;99.90;;;;;;5017052;28;20823;-73
2021/09/15 01:45:19;;;;;;;12.30;8.30;;;18.90;99.90;;;;;;5011007;28;20467;-73
2021/09/15 01:48:05;;;;;;;11.10;8.67;;;18.80;99.90;;;;;;5021560;28;20451;-73
2021/09/15 01:50:51;;;;;;;10.10;8.77;;;18.70;99.90;;;;;;5020669;28;20425;-73
2021/09/15 01:53:36;;;;;;;9.77;8.37;;;18.80;99.90;;;;;;5017862;28;20521;-73
2021/09/15 01:56:23;;;;;;;8.73;7.93;;;18.80;99.90;;;;;;5016352;28;20393;-73
2021/09/15 01:59:09;;;;;;;10.77;9.63;;;18.80;99.90;;;;;;5015757;28;20475;-73
2021/09/15 02:01:55;;;;;;;9.40;8.30;;;18.90;99.90;;;;;;5022992;28;20458;-73
2021/09/15 02:04:41;;;;;;;11.47;8.20;;;18.80;99.90;;;;;;5016234;28;20450;-73
2021/09/15 02:07:26;;;;;;;9.13;8.23;;;18.90;99.90;;;;;;5010468;28;20972;-74
2021/09/15 02:10:13;;;;;;;9.73;8.60;;;18.90;99.90;;;;;;5013355;28;20424;-73
2021/09/15 02:13:00;;;;;;;9.80;8.63;;;18.90;99.90;;;;;;5020811;28;20452;-73
2021/09/15 02:15:46;;;;;;;11.17;8.67;;;18.90;99.90;;;;;;5003207;28;20443;-73
2021/09/15 02:18:32;;;;;;;12.77;8.13;;;18.80;99.90;;;;;;5024677;28;20429;-73
2021/09/15 02:21:18;;;;;;;10.40;8.17;;;18.90;99.90;;;;;;5019168;28;20948;-73
2021/09/15 02:24:05;;;;;;;8.30;7.40;;;18.80;99.90;;;;;;5020785;28;20584;-73
2021/09/15 02:26:50;;;;;;;13.17;8.47;;;18.90;99.90;;;;;;5028657;28;20551;-74
2021/09/15 02:29:37;;;;;;;10.37;8.23;;;18.90;99.90;;;;;;5016843;28;20483;-74
2021/09/15 02:32:23;;;;;;;10.67;7.80;;;18.90;99.90;;;;;;5016287;28;20929;-74
2021/09/15 02:35:10;;;;;;;12.37;8.00;;;18.80;99.90;;;;;;5012682;28;20421;-73
2021/09/15 02:37:56;;;;;;;11.33;7.97;;;18.80;99.90;;;;;;5028509;28;20417;-74
2021/09/15 02:40:41;;;;;;;11.37;8.57;;;18.80;99.90;;;;;;5019724;28;20928;-73
2021/09/15 02:43:27;;;;;;;9.70;8.27;;;18.70;99.90;;;;;;5007372;28;20576;-74
2021/09/15 02:46:14;;;;;;;16.97;8.40;;;18.60;99.90;;;;;;5013842;28;20512;-73
2021/09/15 02:49:00;;;;;;;9.13;8.23;;;18.60;99.90;;;;;;5014962;28;20433;-73
2021/09/15 02:51:46;;;;;;;10.73;9.10;;;18.70;99.90;;;;;;5020901;28;20424;-74
2021/09/15 02:54:31;;;;;;;11.57;8.80;;;18.50;99.90;;;;;;5025710;28;21125;-73
2021/09/15 02:57:17;;;;;;;16.03;9.00;;;18.60;99.90;;;;;;5011208;28;21007;-73
2021/09/15 03:00:04;;;;;;;9.70;8.47;;;18.70;99.90;;;;;;5017535;28;20642;-73
2021/09/15 03:02:51;;;;;;;9.77;7.60;;;18.80;99.90;;;;;;5021978;28;20973;-73
2021/09/15 03:05:37;;;;;;;9.00;8.10;;;18.80;99.90;;;;;;5016911;28;20465;-73
2021/09/15 03:08:22;;;;;;;15.67;9.13;;;18.70;99.90;;;;;;5013986;28;20931;-73
2021/09/15 03:11:08;;;;;;;11.10;9.67;;;18.70;99.90;;;;;;5011230;28;20436;-73
2021/09/15 03:13:53;;;;;;;9.20;8.40;;;18.70;99.90;;;;;;5029571;28;20451;-73
2021/09/15 03:16:39;;;;;;;9.37;8.47;;;18.70;99.90;;;;;;5020582;28;20438;-74
2021/09/15 03:19:26;;;;;;;11.87;9.90;;;18.70;99.90;;;;;;5029678;28;20401;-74
2021/09/15 03:22:13;;;;;;;9.67;8.77;;;18.70;99.90;;;;;;5016768;28;20931;-74
2021/09/15 03:24:59;;;;;;;11.17;9.50;;;18.60;99.90;;;;;;5021591;28;20422;-74
2021/09/15 03:27:44;;;;;;;11.23;9.47;;;18.70;99.90;;;;;;5013112;28;20413;-73
2021/09/15 03:30:30;;;;;;;11.97;10.63;;;18.80;99.90;;;;;;5023104;28;20454;-73
2021/09/15 03:33:15;;;;;;;11.33;9.30;;;18.80;99.90;;;;;;5009209;28;20440;-74
2021/09/15 03:36:02;;;;;;;10.70;9.70;;;18.80;99.90;;;;;;5021273;28;20922;-74
2021/09/15 03:38:48;;;;;;;10.73;9.63;;;18.90;99.90;;;;;;5015134;28;20569;-74
2021/09/15 03:41:33;;;;;;;19.20;9.33;;;18.90;99.90;;;;;;5012156;28;20430;-74
2021/09/15 03:44:19;;;;;;;11.53;9.00;;;19.00;99.90;;;;;;5016520;28;21068;-74
2021/09/15 03:47:04;;;;;;;10.43;9.07;;;18.90;99.90;;;;;;5019228;28;20482;-74
2021/09/15 03:49:50;;;;;;;12.07;10.17;;;18.80;99.90;;;;;;5019194;28;20424;-74
2021/09/15 03:52:37;;;;;;;15.67;11.00;;;18.80;99.90;;;;;;5022580;28;20469;-74
2021/09/15 03:55:22;;;;;;;11.33;10.20;;;18.80;99.90;;;;;;5005929;28;20479;-73
2021/09/15 03:58:08;;;;;;;11.80;10.03;;;18.80;99.90;;;;;;5011521;28;20478;-74
2021/09/15 04:00:54;;;;;;;12.07;10.80;;;18.80;99.90;;;;;;5020001;28;20412;-74
2021/09/15 04:03:40;;;;;;;11.20;10.10;;;18.70;99.90;;;;;;5010153;28;20453;-74
2021/09/15 04:06:26;;;;;;;14.20;10.27;;;18.70;99.90;;;;;;5023799;28;20477;-74
2021/09/15 04:09:12;;;;;;;11.93;10.53;;;18.60;99.90;;;;;;5014267;28;20465;-74
2021/09/15 04:11:58;;;;;;;13.57;9.63;;;18.70;99.90;;;;;;5022028;28;20794;-74
2021/09/15 04:14:45;;;;;;;18.07;8.80;;;18.80;99.90;;;;;;5021147;28;20846;-73
2021/09/15 04:17:30;;;;;;;10.67;9.57;;;18.90;99.90;;;;;;5018835;28;20656;-74
2021/09/15 04:20:16;;;;;;;10.80;9.70;;;18.90;99.90;;;;;;5020137;28;20614;-74
2021/09/15 04:23:01;;;;;;;11.23;9.97;;;18.90;99.90;;;;;;5018658;28;20598;-74
2021/09/15 04:31:55;;;;;;;19.57;9.43;;;19.00;99.90;;;;;;5026886;28;20423;-74
2021/09/15 04:34:41;;;;;;;10.53;9.50;;;19.00;99.90;;;;;;5015851;28;20442;-74
2021/09/15 04:37:26;;;;;;;12.87;10.00;;;19.00;99.90;;;;;;5016193;28;20980;-74
2021/09/15 04:40:13;;;;;;;10.00;9.10;;;18.90;99.90;;;;;;5003218;28;20816;-72
2021/09/15 04:43:00;;;;;;;10.80;9.70;;;18.90;99.90;;;;;;5021907;28;20420;-74
2021/09/15 04:45:46;;;;;;;13.50;10.40;;;18.90;99.90;;;;;;5023085;28;21134;-75
2021/09/15 04:48:31;;;;;;;11.00;9.83;;;19.00;99.90;;;;;;5020388;28;21212;-74
2021/09/15 04:51:17;;;;;;;11.13;10.00;;;19.00;99.90;;;;;;5022791;28;20809;-75
2021/09/15 04:54:03;;;;;;;11.30;10.20;;;19.00;99.90;;;;;;5022309;28;20552;-74
2021/09/15 04:56:48;;;;;;;10.90;9.60;;;19.00;99.90;;;;;;5019241;28;20533;-73
2021/09/15 04:59:36;;;;;;;10.53;9.20;;;19.00;99.90;;;;;;5022970;28;20459;-73
2021/09/15 05:02:22;;;;;;;14.17;10.40;;;18.90;99.90;;;;;;5016122;28;20425;-74
2021/09/15 05:05:08;;;;;;;18.90;9.70;;;18.90;99.90;;;;;;5010438;28;20437;-74
2021/09/15 05:07:54;;;;;;;16.83;9.83;;;18.80;99.90;;;;;;5028666;28;20460;-75
2021/09/15 05:10:39;;;;;;;11.37;10.27;;;18.80;99.90;;;;;;5013217;28;20469;-74
2021/09/15 05:13:25;;;;;;;13.53;9.90;;;18.80;99.90;;;;;;5020841;28;20545;-74
2021/09/15 05:16:12;;;;;;;14.33;10.70;;;18.90;99.90;;;;;;5022508;28;21045;-74
2021/09/15 05:18:57;;;;;;;14.60;10.47;;;18.90;99.90;;;;;;5023854;28;20445;-74
2021/09/15 05:21:43;;;;;;;12.40;11.03;;;18.90;99.90;;;;;;5019010;28;20979;-75
2021/09/15 05:24:29;;;;;;;15.87;11.90;;;19.10;99.90;;;;;;5015132;28;20448;-74
2021/09/15 05:27:15;;;;;;;11.60;10.50;;;19.00;99.90;;;;;;5021366;28;20840;-74
2021/09/15 05:30:00;;;;;;;12.90;10.70;;;19.00;99.90;;;;;;5021649;28;20594;-74
2021/09/15 05:32:48;;;;;;;15.90;11.27;;;19.00;99.90;;;;;;5021104;28;20448;-75
2021/09/15 05:35:33;;;;;;;12.23;10.50;;;19.00;99.90;;;;;;5023472;28;20436;-74
2021/09/15 05:38:19;;;;;;;11.60;10.40;;;19.00;99.90;;;;;;5017600;28;20422;-74
2021/09/15 05:41:05;;;;;;;11.17;10.17;;;19.10;99.90;;;;;;5022028;28;20990;-74
2021/09/15 05:43:50;;;;;;;17.10;11.50;;;19.10;99.90;;;;;;5014718;28;21004;-74
2021/09/15 05:46:36;;;;;;;13.70;11.27;;;19.10;99.90;;;;;;5017144;28;20449;-74
2021/09/15 05:49:23;;;;;;;11.23;10.13;;;19.10;99.90;;;;;;5015360;28;20427;-74
2021/09/15 05:52:09;;;;;;;12.40;10.87;;;19.00;99.90;;;;;;5021109;28;20424;-74
2021/09/15 05:54:55;;;;;;;11.10;10.13;;;19.00;99.90;;;;;;5014662;28;20429;-74
2021/09/15 05:57:40;;;;;;;15.93;10.47;;;19.00;99.90;;;;;;5025297;28;20422;-73
2021/09/15 06:00:26;;;;;;;13.20;11.73;;;19.00;99.90;;;;;;5017616;28;20896;-74
2021/09/15 06:03:11;;;;;;;14.17;11.47;;;19.00;99.90;;;;;;5014915;28;20462;-74
2021/09/15 06:05:58;;;;;;;14.10;11.57;;;19.00;99.90;;;;;;5022422;28;20405;-74
2021/09/15 06:08:44;;;;;;;15.83;10.93;;;19.10;99.90;;;;;;5018472;28;20386;-75
2021/09/15 06:11:29;;;;;;;12.40;11.20;;;19.10;99.90;;;;;;5020094;28;20426;-74
2021/09/15 06:14:15;;;;;;;15.93;11.30;;;19.00;99.90;;;;;;4996488;28;20469;-74
2021/09/15 06:17:01;;;;;;;12.90;10.10;;;19.10;99.90;;;;;;5023629;28;20466;-73
2021/09/15 06:19:47;;;;;;;12.80;10.93;;;19.10;99.90;;;;;;5017795;28;20449;-74
2021/09/15 06:22:34;;;;;;;11.70;10.50;;;19.10;99.90;;;;;;5019926;28;20529;-74
2021/09/15 06:25:22;;;;;;;15.63;11.30;;;19.10;99.90;;;;;;5015537;28;20445;-74
2021/09/15 06:28:07;;;;;;;14.17;10.50;;;19.20;99.90;;;;;;5016704;28;20957;-74
2021/09/15 06:30:53;;;;;;;12.37;9.73;;;19.20;99.90;;;;;;5014667;28;20429;-75
2021/09/15 06:33:39;;;;;;;12.17;10.30;;;19.30;99.90;;;;;;5024181;28;20447;-74
2021/09/15 06:36:25;;;;;;;13.63;10.40;;;19.30;99.90;;;;;;5011709;28;20426;-74
2021/09/15 06:39:11;;;;;;;13.60;10.23;;;19.30;99.90;;;;;;5017326;28;20760;-74
2021/09/15 06:41:57;;;;;;;13.60;9.90;;;19.40;99.90;;;;;;5027932;28;20459;-74
2021/09/15 06:44:43;;;;;;;11.10;10.00;;;19.50;99.90;;;;;;5015911;28;20451;-74
2021/09/15 06:47:28;;;;;;;15.87;10.93;;;19.50;99.90;;;;;;5022679;28;20449;-74
2021/09/15 06:50:15;;;;;;;14.50;10.40;;;19.60;99.90;;;;;;5020341;28;20890;-74
2021/09/15 06:53:01;;;;;;;12.33;11.07;;;19.60;99.90;;;;;;5015029;28;20467;-74
2021/09/15 06:55:48;;;;;;;15.33;10.37;;;19.60;99.90;;;;;;5030528;28;20558;-74
2021/09/15 06:58:34;;;;;;;12.57;10.63;;;19.70;99.90;;;;;;5027412;28;21233;-74
2021/09/15 07:01:20;;;;;;;11.03;9.93;;;19.70;99.90;;;;;;5009993;28;20425;-74
2021/09/15 07:04:06;;;;;;;11.17;9.93;;;19.80;99.90;;;;;;5024346;28;20991;-74
2021/09/15 07:06:52;;;;;;;21.03;10.17;;;19.80;99.90;;;;;;5018145;28;20485;-74
2021/09/15 07:09:37;;;;;;;12.10;10.80;;;19.80;99.90;;;;;;5017464;28;20938;-74
2021/09/15 07:12:24;;;;;;;11.10;9.83;;;19.80;99.90;;;;;;5012808;28;20553;-74
2021/09/15 07:15:12;;;;;;;11.80;10.23;;;19.80;99.90;;;;;;5012793;28;20397;-74
2021/09/15 07:17:57;;;;;;;14.17;11.37;;;19.80;99.90;;;;;;4993326;28;20407;-74
2021/09/15 07:20:43;;;;;;;14.30;10.30;;;19.80;99.90;;;;;;5001410;28;20427;-74
2021/09/15 07:23:29;;;;;;;19.60;12.03;;;19.90;99.90;;;;;;5020868;28;20440;-74
2021/09/15 07:26:15;;;;;;;14.17;10.50;;;19.90;99.90;;;;;;5004716;28;20424;-74
2021/09/15 07:29:01;;;;;;;16.10;10.60;;;19.90;99.90;;;;;;5014894;28;20918;-74
2021/09/15 07:31:47;;;;;;;16.60;9.80;;;19.90;99.90;;;;;;5018287;28;20425;-73
2021/09/15 07:34:33;;;;;;;13.17;10.63;;;20.00;99.90;;;;;;5016037;28;20565;-74
2021/09/15 07:37:18;;;;;;;15.73;9.60;;;20.00;99.90;;;;;;5014513;28;20446;-75
2021/09/15 07:40:05;;;;;;;11.20;8.10;;;20.00;99.90;;;;;;5022300;28;20528;-74
2021/09/15 07:42:51;;;;;;;11.63;8.70;;;20.10;99.90;;;;;;5024566;28;20441;-74
2021/09/15 07:45:38;;;;;;;11.07;8.43;;;20.10;99.90;;;;;;5022294;28;20557;-75
2021/09/15 07:48:24;;;;;;;9.63;8.57;;;20.20;99.90;;;;;;5014296;28;21001;-73
2021/09/15 07:51:10;;;;;;;8.63;7.23;;;20.10;99.90;;;;;;5018913;28;20414;-74
2021/09/15 07:53:55;;;;;;;11.23;7.77;;;20.10;99.90;;;;;;5018990;28;21085;-74
2021/09/15 07:56:41;;;;;;;7.33;6.63;;;20.10;99.90;;;;;;5026359;28;20450;-74
2021/09/15 07:59:27;;;;;;;9.77;6.10;;;20.20;99.90;;;;;;5011035;28;21094;-74
2021/09/15 08:02:14;;;;;;;9.50;6.70;;;20.20;99.90;;;;;;5020129;28;20426;-74
2021/09/15 08:04:59;;;;;;;7.50;6.07;;;20.30;99.90;;;;;;5021646;28;20453;-74
2021/09/15 08:07:45;;;;;;;8.87;5.50;;;20.20;99.90;;;;;;5027295;28;20545;-74
2021/09/15 08:10:31;;;;;;;7.40;5.70;;;20.30;99.90;;;;;;5024439;28;20405;-74
2021/09/15 08:13:20;;;;;;;10.23;5.10;;;20.40;99.90;;;;;;5020478;28;20480;-74
2021/09/15 08:16:06;;;;;;;7.00;5.03;;;20.40;99.90;;;;;;5019743;28;20468;-74
2021/09/15 08:18:53;;;;;;;7.90;4.67;;;20.40;99.90;;;;;;5016773;28;20490;-74
2021/09/15 08:21:39;;;;;;;12.37;5.10;;;20.40;99.90;;;;;;5017805;28;20419;-73
2021/09/15 08:24:25;;;;;;;7.17;4.63;;;20.40;99.90;;;;;;5014611;28;20424;-74
2021/09/15 08:27:11;;;;;;;8.30;4.53;;;20.40;99.90;;;;;;5019892;28;20499;-73
2021/09/15 08:29:56;;;;;;;9.60;4.70;;;20.40;99.90;;;;;;5012671;28;20480;-74
2021/09/15 08:32:42;;;;;;;5.23;3.70;;;20.40;99.90;;;;;;5018275;28;20512;-74
2021/09/15 08:35:30;;;;;;;7.97;3.60;;;20.40;99.90;;;;;;5000906;28;20428;-74
2021/09/15 08:38:16;;;;;;;5.20;3.10;;;20.30;99.90;;;;;;5021824;28;20466;-74
2021/09/15 08:41:02;;;;;;;9.20;3.67;;;20.10;99.90;;;;;;5011659;28;20401;-74
2021/09/15 08:43:48;;;;;;;4.00;2.90;;;20.00;99.90;;;;;;5021887;28;20447;-74
2021/09/15 08:46:34;;;;;;;7.77;3.50;;;19.80;99.90;;;;;;5021813;28;21190;-73
2021/09/15 08:49:21;;;;;;;16.63;3.40;;;19.70;99.90;;;;;;5018394;28;20437;-73
2021/09/15 08:52:08;;;;;;;5.30;3.43;;;19.70;99.90;;;;;;5018316;28;20450;-73
2021/09/15 08:54:54;;;;;;;7.70;3.50;;;19.80;99.90;;;;;;5017138;28;20552;-74
2021/09/15 08:57:41;;;;;;;5.57;3.07;;;19.80;99.90;;;;;;5023037;28;20544;-73
2021/09/15 09:00:26;;;;;;;6.77;3.13;;;19.80;99.90;;;;;;5024456;28;20509;-74
2021/09/15 09:03:12;;;;;;;5.60;2.73;;;19.70;99.90;;;;;;5009976;28;20439;-74
2021/09/15 09:06:09;;;;;;;7.50;3.40;;;19.70;99.90;;;;;;5023918;28;20520;-74
2021/09/15 09:08:57;;;;;;;7.50;3.33;;;19.70;99.90;;;;;;5024981;28;20456;-73
2021/09/15 09:11:44;;;;;;;9.33;3.13;;;19.80;99.90;;;;;;5025904;28;20451;-73
2021/09/15 09:14:30;;;;;;;7.60;3.40;;;19.90;99.90;;;;;;5055303;22;20502;-71
2021/09/15 09:17:32;;;;;;;7.10;3.30;;;19.90;99.90;;;;;;5029447;28;20420;-71
2021/09/15 09:20:23;;;;;;;4.70;2.40;;;19.90;99.90;;;;;;5031015;28;20449;-71
2021/09/15 09:23:12;;;;;;;7.23;3.43;;;20.10;99.90;;;;;;5027346;28;20542;-71
2021/09/15 09:26:00;;;;;;;10.13;4.13;;;20.10;99.90;;;;;;5015389;28;20523;-69
2021/09/15 09:28:46;;;;;;;6.03;3.03;;;20.20;99.90;;;;;;5004306;28;20487;-71
2021/09/15 09:31:34;;;;;;;5.80;3.33;;;20.20;99.90;;;;;;5020566;28;20420;-71
2021/09/15 09:34:19;;;;;;;5.83;3.47;;;20.20;99.90;;;;;;5008152;28;20809;-71
2021/09/15 09:37:09;;;;;;;5.00;3.17;;;20.10;99.90;;;;;;5018793;28;20822;-71
2021/09/15 09:39:57;;;;;;;4.63;3.03;;;20.00;99.90;;;;;;5020499;28;20448;-70
2021/09/15 09:42:44;;;;;;;9.10;3.30;;;20.00;99.90;;;;;;5016395;28;20434;-71
2021/09/15 09:45:30;;;;;;;5.93;3.80;;;20.10;99.90;;;;;;5016829;28;20450;-71
2021/09/15 09:48:36;;;;;;;5.13;3.80;;;20.20;99.90;;;;;;5014276;28;20446;-71
2021/09/15 09:51:25;;;;;;;8.67;4.33;;;20.20;99.90;;;;;;5022687;28;20443;-71
2021/09/15 09:54:14;;;;;;;9.97;4.90;;;20.30;99.90;;;;;;5011183;28;20850;-72
2021/09/15 09:57:00;;;;;;;7.07;4.20;;;20.30;99.90;;;;;;5015552;28;20999;-72
2021/09/15 09:59:47;;;;;;;8.77;4.70;;;20.30;99.90;;;;;;5012522;28;20430;-71
2021/09/15 10:02:32;;;;;;;5.17;4.27;;;20.20;99.90;;;;;;5014600;28;20461;-72
2021/09/15 10:05:21;;;;;;;6.80;4.63;;;20.20;99.90;;;;;;5015882;28;20831;-71
2021/09/15 10:08:08;;;;;;;7.73;4.70;;;20.20;99.90;;;;;;5021533;28;20551;-72
2021/09/15 10:10:53;;;;;;;4.53;3.53;;;20.10;99.90;;;;;;5008905;28;20437;-71
2021/09/15 10:13:39;;;;;;;3.97;3.00;;;20.20;99.90;;;;;;5020831;28;20459;-69
2021/09/15 10:16:27;;;;;;;5.83;3.30;;;19.90;99.90;;;;;;5014475;28;20455;-72
2021/09/15 10:19:16;;;;;;;3.30;3.00;;;20.00;99.90;;;;;;5017189;28;21048;-71
2021/09/15 10:22:04;;;;;;;5.97;3.10;;;19.80;99.90;;;;;;5014377;28;20465;-71
2021/09/15 10:24:55;;;;;;;5.37;3.20;;;19.90;99.90;;;;;;5023796;28;21213;-71
2021/09/15 10:28:01;;;;;;;4.97;3.33;;;19.90;99.90;;;;;;5020586;28;20459;-72
2021/09/15 10:30:49;;;;;;;4.93;3.43;;;19.80;99.90;;;;;;5017351;28;20504;-72
2021/09/15 10:33:48;;;;;;;6.50;3.50;;;19.80;99.90;;;;;;5011679;28;20470;-71
2021/09/15 10:36:38;;;;;;;5.13;4.00;;;19.90;99.90;;;;;;5028478;28;20464;-72
2021/09/15 10:39:25;;;;;;;3.63;3.30;;;20.00;99.90;;;;;;5014364;28;20390;-72
2021/09/15 10:42:38;;;;;;;7.20;3.10;;;20.10;99.90;;;;;;5014976;28;20486;-71
2021/09/15 10:45:26;;;;;;;7.43;3.30;;;20.10;99.90;;;;;;5015794;28;20448;-71
2021/09/15 10:48:15;;;;;;;5.67;3.13;;;20.10;99.90;;;;;;5015627;28;20450;-71
2021/09/15 10:51:17;;;;;;;2.90;2.60;;;20.20;99.90;;;;;;5001953;28;20420;-71
2021/09/15 10:54:03;;;;;;;5.13;3.03;;;20.10;99.90;;;;;;5015836;28;20430;-71
2021/09/15 10:56:48;;;;;;;3.43;3.00;;;20.00;99.90;;;;;;5014543;28;20411;-71
2021/09/15 10:59:48;;;;;;;4.07;2.97;;;20.10;99.90;;;;;;5007975;28;20426;-71
2021/09/15 11:02:36;;;;;;;4.43;3.30;;;20.10;99.90;;;;;;5008890;28;20422;-71
2021/09/15 11:05:43;;;;;;;3.80;2.93;;;20.10;99.90;;;;;;5017953;28;20825;-71
2021/09/15 11:08:41;;;;;;;5.17;3.13;;;20.20;99.90;;;;;;5013521;28;20630;-71
2021/09/15 11:11:48;;;;;;;4.47;3.70;;;20.40;99.90;;;;;;5003372;28;20403;-71
2021/09/15 11:14:56;;;;;;;5.40;3.70;;;20.50;99.90;;;;;;5010032;28;20531;-71
2021/09/15 11:17:46;;;;;;;4.77;4.27;;;20.40;99.90;;;;;;5013670;28;20936;-72
2021/09/15 11:20:34;;;;;;;5.53;3.50;;;20.50;99.90;;;;;;5007022;28;20422;-71
2021/09/15 11:23:19;;;;;;;9.17;4.37;;;20.60;99.90;;;;;;5006471;28;20419;-71
2021/09/15 11:26:06;;;;;;;6.20;4.57;;;20.50;99.90;;;;;;5014410;28;20410;-71
2021/09/15 11:28:52;;;;;;;5.77;4.20;;;20.70;99.90;;;;;;5021137;28;20468;-71
2021/09/15 11:31:40;;;;;;;6.70;4.60;;;20.60;99.90;;;;;;5012195;28;20437;-71
2021/09/15 11:34:25;;;;;;;5.63;3.57;;;20.70;99.90;;;;;;5013949;28;20501;-71
2021/09/15 11:37:19;;;;;;;6.70;4.40;;;20.80;99.90;;;;;;5021331;28;20505;-71
2021/09/15 11:40:09;;;;;;;6.43;4.20;;;20.90;99.90;;;;;;5015042;28;20410;-71
2021/09/15 11:42:57;;;;;;;5.73;4.53;;;21.10;99.90;;;;;;5014828;28;20411;-71
2021/09/15 11:45:42;;;;;;;4.93;4.00;;;21.00;99.90;;;;;;5003239;28;20460;-72
2021/09/15 11:48:29;;;;;;;6.77;4.97;;;21.00;99.90;;;;;;5014960;28;20450;-71
2021/09/15 11:51:16;;;;;;;5.33;4.27;;;21.10;99.90;;;;;;5018502;28;21069;-71
2021/09/15 11:54:05;;;;;;;5.47;4.07;;;21.00;99.90;;;;;;5025385;28;20456;-71
2021/09/15 11:56:53;;;;;;;6.63;4.50;;;21.10;99.90;;;;;;5011511;28;20505;-70
2021/09/15 11:59:40;;;;;;;9.00;4.70;;;21.20;99.90;;;;;;5012341;28;20483;-70
2021/09/15 12:02:26;;;;;;;5.33;4.07;;;21.20;99.90;;;;;;5009281;28;20486;-69
2021/09/15 12:05:13;;;;;;;6.00;4.60;;;21.10;99.90;;;;;;5010677;28;21002;-70
2021/09/15 12:07:59;;;;;;;8.03;5.47;;;21.10;99.90;;;;;;5021083;28;20581;-70
2021/09/15 12:10:44;;;;;;;10.70;5.80;;;21.10;99.90;;;;;;5032537;28;20421;-70
2021/09/15 12:13:31;;;;;;;9.60;5.60;;;21.10;99.90;;;;;;5031770;28;20576;-69
2021/09/15 12:16:28;;;;;;;5.90;5.07;;;21.00;99.90;;;;;;4996999;28;20565;-70
2021/09/15 12:19:15;;;;;;;7.70;5.23;;;21.00;99.90;;;;;;4992321;28;20869;-70
2021/09/15 12:22:01;;;;;;;6.53;5.43;;;21.10;99.90;;;;;;4997998;28;20495;-70
2021/09/15 12:24:58;;;;;;;8.50;5.60;;;21.10;99.90;;;;;;5002721;28;20578;-70
2021/09/15 12:27:43;;;;;;;6.20;5.60;;;21.20;99.90;;;;;;5006312;28;20770;-70
2021/09/15 12:30:29;;;;;;;9.10;5.10;;;21.30;99.90;;;;;;5006294;28;20447;-70
2021/09/15 12:33:24;;;;;;;9.70;5.60;;;21.30;99.90;;;;;;5001318;28;20592;-69
2021/09/15 12:36:12;;;;;;;15.63;5.90;;;21.30;99.90;;;;;;5001117;28;20483;-70
2021/09/15 12:38:59;;;;;;;7.20;5.50;;;21.30;99.90;;;;;;5018083;28;20407;-70
2021/09/15 12:41:55;;;;;;;8.27;5.20;;;21.40;99.90;;;;;;5002291;28;20517;-69
2021/09/15 12:44:40;;;;;;;4.50;4.10;;;21.30;99.90;;;;;;5001479;28;20607;-70
2021/09/15 12:47:34;;;;;;;8.03;4.83;;;21.30;99.90;;;;;;5011575;28;20428;-69
2021/09/15 12:50:24;;;;;;;6.70;4.50;;;21.40;99.90;;;;;;5005921;28;20493;-70
2021/09/15 12:53:11;;;;;;;9.60;4.80;;;21.50;99.90;;;;;;5005084;28;20425;-69
2021/09/15 12:55:56;;;;;;;6.00;4.33;;;21.70;99.90;;;;;;5010823;28;20399;-69
2021/09/15 12:58:42;;;;;;;6.77;4.30;;;21.80;99.90;;;;;;5005172;28;20571;-69
2021/09/15 13:01:27;;;;;;;7.67;4.80;;;21.90;99.90;;;;;;5009259;28;20956;-70
2021/09/15 13:04:13;;;;;;;6.17;4.70;;;21.70;99.90;;;;;;5016067;28;20498;-70
2021/09/15 13:07:00;;;;;;;7.80;4.40;;;21.80;99.90;;;;;;5019362;28;20408;-70
2021/09/15 13:09:47;;;;;;;11.03;4.43;;;21.80;99.90;;;;;;5015169;28;20569;-70
2021/09/15 13:12:35;;;;;;;8.03;3.80;;;21.90;99.90;;;;;;5002987;28;20458;-69
2021/09/15 13:15:20;;;;;;;7.77;3.97;;;21.90;99.90;;;;;;5006024;28;20832;-70
2021/09/15 13:18:06;;;;;;;6.40;4.73;;;21.90;99.90;;;;;;5001873;28;20479;-70
2021/09/15 13:20:51;;;;;;;5.00;4.40;;;21.90;99.90;;;;;;5009339;28;20426;-70
2021/09/15 13:23:38;;;;;;;5.10;4.07;;;22.00;99.90;;;;;;5000776;28;20443;-70
2021/09/15 13:26:26;;;;;;;8.40;4.10;;;22.10;99.90;;;;;;5008748;28;20407;-69
2021/09/15 13:29:12;;;;;;;4.97;3.90;;;22.10;99.90;;;;;;5016215;28;20447;-70
2021/09/15 13:31:57;;;;;;;5.87;4.50;;;22.10;99.90;;;;;;5013191;28;21001;-69
2021/09/15 13:34:43;;;;;;;7.63;4.80;;;22.00;99.90;;;;;;5000732;28;20488;-70
2021/09/15 13:37:29;;;;;;;7.40;4.40;;;21.90;99.90;;;;;;5016192;28;20547;-70
2021/09/15 13:40:16;;;;;;;9.10;4.20;;;22.00;99.90;;;;;;5011912;28;20941;-69
2021/09/15 13:43:01;;;;;;;8.10;3.93;;;22.00;99.90;;;;;;5011344;28;20430;-70
2021/09/15 13:45:47;;;;;;;4.10;3.60;;;22.00;99.90;;;;;;5010509;28;20427;-70
2021/09/15 13:48:32;;;;;;;7.27;4.47;;;22.10;99.90;;;;;;5010607;28;20854;-69
2021/09/15 13:51:18;;;;;;;8.70;4.30;;;22.10;99.90;;;;;;5013890;28;20414;-69
2021/09/15 13:54:05;;;;;;;5.30;4.30;;;22.10;99.90;;;;;;5013850;28;20965;-70
2021/09/15 13:56:52;;;;;;;6.53;4.20;;;22.10;99.90;;;;;;5014687;28;20806;-69
2021/09/15 13:59:37;;;;;;;7.07;4.27;;;22.20;99.90;;;;;;5012965;28;20418;-70
2021/09/15 14:02:23;;;;;;;6.00;4.30;;;22.10;99.90;;;;;;5009244;28;20427;-70
2021/09/15 14:05:10;;;;;;;9.43;4.60;;;22.00;99.90;;;;;;5011625;28;20467;-69
2021/09/15 14:07:55;;;;;;;4.87;3.60;;;22.10;99.90;;;;;;5016950;28;20403;-69
2021/09/15 14:10:41;;;;;;;6.40;4.23;;;22.10;99.90;;;;;;5007027;28;20453;-69
2021/09/15 14:13:28;;;;;;;4.90;3.67;;;22.20;99.90;;;;;;5012667;28;20483;-70
2021/09/15 14:16:14;;;;;;;7.30;3.60;;;22.20;99.90;;;;;;5007990;28;20535;-70
2021/09/15 14:19:00;;;;;;;29.83;3.87;;;22.20;99.90;;;;;;5013769;28;20406;-70
2021/09/15 14:21:45;;;;;;;5.07;3.77;;;22.10;99.90;;;;;;5013557;28;20469;-70
2021/09/15 14:24:31;;;;;;;4.63;3.70;;;22.20;99.90;;;;;;5012922;28;20430;-70
2021/09/15 14:27:17;;;;;;;9.93;4.03;;;22.10;99.90;;;;;;5016507;28;20810;-70